createdAt,value
2023-01-29T00:02:23.569Z,2.01
2023-01-29T00:04:51.577Z,3.66
2023-01-29T00:07:18.845Z,5.08
2023-01-29T00:09:46.349Z,5.74
2023-01-29T00:12:13.877Z,4.72
2023-01-29T00:14:41.087Z,3.60
2023-01-29T00:17:10.639Z,2.80
2023-01-29T00:19:38.546Z,2.13
2023-01-29T00:22:05.907Z,1.56
2023-01-29T00:24:33.307Z,1.24
2023-01-29T00:27:00.697Z,2.37
2023-01-29T00:29:28.156Z,3.99
2023-01-29T00:31:55.889Z,4.69
2023-01-29T00:34:24.212Z,3.82
2023-01-29T00:36:51.578Z,2.78
2023-01-29T00:39:29.351Z,2.01
2023-01-29T00:42:21.834Z,1.40
2023-01-29T00:44:58.641Z,1.50
2023-01-29T00:47:33.977Z,3.26
2023-01-29T00:50:03.004Z,4.72
2023-01-29T00:52:30.652Z,4.91
2023-01-29T00:55:00.497Z,3.91
2023-01-29T00:57:30.292Z,2.91
2023-01-29T00:59:58.126Z,2.12
2023-01-29T01:02:44.236Z,1.53
2023-01-29T01:05:20.171Z,1.06
2023-01-29T01:07:50.023Z,1.76
2023-01-29T01:10:24.676Z,3.50
2023-01-29T01:12:55.058Z,4.79
2023-01-29T01:15:24.757Z,4.47
2023-01-29T01:18:00.065Z,3.30
2023-01-29T01:20:29.681Z,2.31
2023-01-29T01:22:57.497Z,1.66
2023-01-29T01:25:26.790Z,1.19
2023-01-29T01:27:54.982Z,0.86
2023-01-29T01:30:23.479Z,0.61
2023-01-29T01:32:50.901Z,0.64
2023-01-29T01:35:18.283Z,2.14
2023-01-29T01:37:45.564Z,3.74
2023-01-29T01:40:20.695Z,4.59
2023-01-29T01:42:56.900Z,3.75
2023-01-29T01:45:27.136Z,2.61
2023-01-29T01:48:04.297Z,1.78
2023-01-29T01:50:47.324Z,1.14
2023-01-29T01:53:19.292Z,1.02
2023-01-29T01:55:51.127Z,2.37
2023-01-29T01:58:37.432Z,3.80
2023-01-29T02:04:19.712Z,3.42
2023-01-29T02:07:06.798Z,2.30
2023-01-29T02:09:41.083Z,1.53
2023-01-29T02:12:13.674Z,1.04
2023-01-29T02:14:43.007Z,0.67
2023-01-29T02:17:16.379Z,0.37
2023-01-29T02:20:08.184Z,0.08
2023-01-29T02:23:18.570Z,-0.17
2023-01-29T02:26:17.195Z,0.26
2023-01-29T02:28:53.928Z,2.66
2023-01-29T02:31:32.818Z,4.26
2023-01-29T02:34:19.141Z,4.88
2023-01-29T02:36:52.713Z,3.55
2023-01-29T02:39:44.947Z,2.43
2023-01-29T02:42:31.534Z,1.53
2023-01-29T02:45:04.235Z,0.99
2023-01-29T02:47:40.614Z,0.55
2023-01-29T02:50:37.989Z,0.20
2023-01-29T02:53:14.312Z,0.65
2023-01-29T02:55:56.189Z,2.48
2023-01-29T02:58:42.568Z,4.04
2023-01-29T03:01:38.316Z,4.40
2023-01-29T03:04:13.627Z,3.09
2023-01-29T03:06:49.737Z,2.09
2023-01-29T03:09:23.287Z,1.34
2023-01-29T03:12:28.797Z,0.85
2023-01-29T03:15:14.581Z,0.39
2023-01-29T03:17:54.971Z,0.97
2023-01-29T03:20:29.969Z,2.94
2023-01-29T03:23:04.656Z,4.37
2023-01-29T03:25:53.974Z,3.83
2023-01-29T03:28:41.789Z,2.49
2023-01-29T03:31:33.152Z,1.60
2023-01-29T03:34:25.075Z,0.99
2023-01-29T03:37:04.487Z,0.53
2023-01-29T03:39:32.149Z,0.18
2023-01-29T03:42:02.084Z,-0.11
2023-01-29T03:44:52.478Z,-0.14
2023-01-29T03:47:38.159Z,1.56
2023-01-29T03:50:20.651Z,3.35
2023-01-29T03:53:04.159Z,4.27
2023-01-29T03:55:42.526Z,3.13
2023-01-29T03:58:36.402Z,1.92
2023-01-29T04:01:12.083Z,1.03
2023-01-29T04:03:48.064Z,0.42
2023-01-29T04:06:21.208Z,0.14
2023-01-29T04:08:58.088Z,1.58
2023-01-29T04:11:27.998Z,2.92
2023-01-29T04:13:56.759Z,2.46
2023-01-29T04:16:29.944Z,1.54
2023-01-29T04:18:58.228Z,0.82
2023-01-29T04:21:26.631Z,0.30
2023-01-29T04:23:54.623Z,-0.16
2023-01-29T04:26:37.704Z,0.10
2023-01-29T04:29:40.493Z,1.89
2023-01-29T04:32:39.203Z,3.55
2023-01-29T04:35:12.623Z,3.44
2023-01-29T04:38:06.187Z,2.23
2023-01-29T04:40:56.144Z,1.09
2023-01-29T04:43:28.904Z,0.30
2023-01-29T04:46:16.034Z,-0.21
2023-01-29T04:49:01.844Z,-0.27
2023-01-29T04:51:59.246Z,1.43
2023-01-29T04:54:58.895Z,3.15
2023-01-29T04:58:04.294Z,3.62
2023-01-29T05:00:38.707Z,2.14
2023-01-29T05:03:10.161Z,1.12
2023-01-29T05:05:39.786Z,0.43
2023-01-29T05:08:08.492Z,-0.08
2023-01-29T05:10:36.256Z,-0.45
2023-01-29T05:13:05.975Z,-0.79
2023-01-29T05:15:50.947Z,-1.08
2023-01-29T05:18:18.353Z,-1.34
2023-01-29T05:20:47.398Z,-1.11
2023-01-29T05:23:22.878Z,0.69
2023-01-29T05:25:52.367Z,2.24
2023-01-29T05:28:19.953Z,3.43
2023-01-29T05:30:49.659Z,3.62
2023-01-29T05:33:25.200Z,2.44
2023-01-29T05:35:52.974Z,1.36
2023-01-29T05:38:20.995Z,0.65
2023-01-29T05:40:48.589Z,0.10
2023-01-29T05:43:22.032Z,-0.38
2023-01-29T05:46:07.984Z,-0.76
2023-01-29T05:48:35.522Z,-1.09
2023-01-29T05:51:04.992Z,-0.96
2023-01-29T05:53:33.818Z,0.80
2023-01-29T05:56:25.881Z,2.40
2023-01-29T05:58:53.198Z,3.46
2023-01-29T06:01:26.325Z,3.44
2023-01-29T06:03:53.780Z,2.31
2023-01-29T06:06:21.400Z,1.39
2023-01-29T06:08:48.819Z,0.74
2023-01-29T06:11:18.827Z,0.23
2023-01-29T06:13:46.307Z,-0.18
2023-01-29T06:16:14.574Z,-0.49
2023-01-29T06:18:42.551Z,-0.73
2023-01-29T06:21:12.896Z,-0.92
2023-01-29T06:23:40.654Z,-1.12
2023-01-29T06:26:11.210Z,-1.30
2023-01-29T06:28:40.096Z,-1.46
2023-01-29T06:31:24.988Z,-1.62
2023-01-29T06:33:56.330Z,-1.11
2023-01-29T06:36:23.737Z,0.99
2023-01-29T06:38:50.994Z,2.33
2023-01-29T06:41:20.279Z,2.96
2023-01-29T06:43:48.320Z,2.28
2023-01-29T06:46:15.421Z,1.24
2023-01-29T06:48:43.314Z,0.45
2023-01-29T06:51:11.957Z,-0.11
2023-01-29T06:53:40.452Z,-0.53
2023-01-29T06:56:08.324Z,-0.83
2023-01-29T06:58:39.162Z,-1.07
2023-01-29T07:01:09.740Z,-1.27
2023-01-29T07:03:37.591Z,-1.08
2023-01-29T07:06:05.943Z,0.84
2023-01-29T07:08:37.484Z,2.46
2023-01-29T07:11:05.664Z,3.17
2023-01-29T07:13:33.530Z,2.43
2023-01-29T07:16:02.651Z,1.44
2023-01-29T07:18:31.397Z,0.70
2023-01-29T07:20:58.942Z,0.14
2023-01-29T07:23:26.706Z,-0.29
2023-01-29T07:25:54.113Z,-0.60
2023-01-29T07:28:21.331Z,-0.86
2023-01-29T07:30:48.575Z,-0.58
2023-01-29T07:33:15.712Z,1.14
2023-01-29T07:35:44.209Z,2.40
2023-01-29T07:38:12.204Z,2.34
2023-01-29T07:40:39.712Z,1.37
2023-01-29T07:43:08.131Z,0.54
2023-01-29T07:45:37.319Z,-0.01
2023-01-29T07:48:06.000Z,-0.39
2023-01-29T07:50:35.089Z,-0.63
2023-01-29T07:53:03.031Z,-0.23
2023-01-29T07:55:32.189Z,1.70
2023-01-29T07:58:01.938Z,3.13
2023-01-29T08:00:31.702Z,3.72
2023-01-29T08:03:07.779Z,2.72
2023-01-29T08:05:35.387Z,1.69
2023-01-29T08:08:07.038Z,0.94
2023-01-29T08:10:36.140Z,0.42
2023-01-29T08:13:04.924Z,0.01
2023-01-29T08:15:33.010Z,0.47
2023-01-29T08:18:02.410Z,1.95
2023-01-29T08:20:29.721Z,3.20
2023-01-29T08:23:06.361Z,3.16
2023-01-29T08:25:35.324Z,2.14
2023-01-29T08:28:02.837Z,1.34
2023-01-29T08:30:33.492Z,0.75
2023-01-29T08:33:00.979Z,0.33
2023-01-29T08:35:28.492Z,0.22
2023-01-29T08:38:00.101Z,1.62
2023-01-29T08:40:29.582Z,3.07
2023-01-29T08:43:07.023Z,3.63
2023-01-29T08:45:37.900Z,2.65
2023-01-29T08:48:05.642Z,1.66
2023-01-29T08:50:35.254Z,0.91
2023-01-29T08:53:05.215Z,0.40
2023-01-29T08:55:32.410Z,1.12
2023-01-29T08:57:59.778Z,2.81
2023-01-29T09:00:27.109Z,3.72
2023-01-29T09:02:54.443Z,2.91
2023-01-29T09:05:21.900Z,1.79
2023-01-29T09:07:49.267Z,1.02
2023-01-29T09:10:19.188Z,0.47
2023-01-29T09:12:47.434Z,0.09
2023-01-29T09:15:15.199Z,0.21
2023-01-29T09:17:43.816Z,1.87
2023-01-29T09:20:11.674Z,3.27
2023-01-29T09:22:39.052Z,3.30
2023-01-29T09:25:07.337Z,2.34
2023-01-29T09:27:34.715Z,1.56
2023-01-29T09:30:01.976Z,1.04
2023-01-29T09:35:18.571Z,0.46
2023-01-29T09:37:50.297Z,1.79
2023-01-29T09:40:52.083Z,3.13
2023-01-29T09:43:28.002Z,2.96
2023-01-29T09:46:03.567Z,1.98
2023-01-29T09:48:34.795Z,1.23
2023-01-29T09:51:11.161Z,0.69
2023-01-29T09:53:49.970Z,0.27
2023-01-29T09:56:21.967Z,0.39
2023-01-29T09:58:50.008Z,2.04
2023-01-29T10:01:39.434Z,2.84
2023-01-29T10:04:36.853Z,2.01
2023-01-29T10:07:10.283Z,1.07
2023-01-29T10:10:07.995Z,0.51
2023-01-29T10:13:00.027Z,0.06
2023-01-29T10:15:47.142Z,0.19
2023-01-29T10:18:53.822Z,1.91
2023-01-29T10:21:42.784Z,3.17
2023-01-29T10:24:30.876Z,2.55
2023-01-29T10:27:00.499Z,1.45
2023-01-29T10:29:29.476Z,0.89
2023-01-29T10:32:05.533Z,0.49
2023-01-29T10:34:39.010Z,0.47
2023-01-29T10:37:24.823Z,1.79
2023-01-29T10:39:52.203Z,2.70
2023-01-29T10:42:34.976Z,2.09
2023-01-29T10:45:16.059Z,1.27
2023-01-29T10:48:06.809Z,0.71
2023-01-29T10:50:58.172Z,0.31
2023-01-29T10:53:49.614Z,0.91
2023-01-29T10:56:33.813Z,2.83
2023-01-29T10:59:09.302Z,3.61
2023-01-29T11:01:36.671Z,2.74
2023-01-29T11:04:07.190Z,1.89
2023-01-29T11:06:36.668Z,1.31
2023-01-29T11:09:29.168Z,0.92
2023-01-29T11:12:20.198Z,0.57
2023-01-29T11:14:56.416Z,0.31
2023-01-29T11:17:25.702Z,0.14
2023-01-29T11:19:58.101Z,0.08
2023-01-29T11:22:28.409Z,1.30
2023-01-29T11:25:20.573Z,3.13
2023-01-29T11:27:51.536Z,3.57
2023-01-29T11:30:27.831Z,2.63
2023-01-29T11:33:10.356Z,1.81
2023-01-29T11:35:37.866Z,1.26
2023-01-29T11:38:17.569Z,0.95
2023-01-29T11:40:45.988Z,0.69
2023-01-29T11:43:31.686Z,0.49
2023-01-29T11:46:12.688Z,0.28
2023-01-29T11:48:48.553Z,0.07
2023-01-29T11:51:27.748Z,-0.13
2023-01-29T11:54:02.749Z,-0.26
2023-01-29T11:56:43.568Z,0.12
2023-01-29T11:59:43.345Z,1.97
2023-01-29T12:02:42.650Z,3.22
2023-01-29T12:05:27.958Z,2.59
2023-01-29T12:08:00.655Z,1.76
2023-01-29T12:10:41.374Z,1.24
2023-01-29T12:13:12.408Z,0.89
2023-01-29T12:15:41.405Z,0.68
2023-01-29T12:18:36.248Z,0.48
2023-01-29T12:21:06.045Z,0.29
2023-01-29T12:23:50.550Z,0.15
2023-01-29T12:26:33.301Z,-0.01
2023-01-29T12:29:16.328Z,-0.05
2023-01-29T12:31:55.884Z,1.45
2023-01-29T12:34:49.741Z,3.16
2023-01-29T12:37:29.327Z,3.44
2023-01-29T12:39:56.801Z,2.47
2023-01-29T12:42:26.071Z,1.79
2023-01-29T12:44:59.209Z,1.28
2023-01-29T12:47:40.725Z,0.92
2023-01-29T12:50:37.222Z,0.64
2023-01-29T12:53:32.751Z,0.42
2023-01-29T12:56:08.242Z,0.23
2023-01-29T12:58:55.355Z,0.08
2023-01-29T13:01:46.425Z,-0.04
2023-01-29T13:04:26.469Z,-0.15
2023-01-29T13:07:00.489Z,-0.07
2023-01-29T13:09:31.130Z,1.43
2023-01-29T13:12:10.723Z,2.24
2023-01-29T13:14:56.263Z,1.70
2023-01-29T13:17:38.934Z,1.07
2023-01-29T13:20:20.432Z,0.68
2023-01-29T13:22:49.698Z,0.40
2023-01-29T13:26:16.892Z,0.23
2023-01-29T13:28:50.532Z,0.06
2023-01-29T13:31:19.815Z,-0.09
2023-01-29T13:34:35.901Z,0.15
2023-01-29T13:37:31.164Z,1.99
2023-01-29T13:40:45.804Z,2.76
2023-01-29T13:43:39.719Z,2.05
2023-01-29T13:46:32.674Z,1.40
2023-01-29T13:49:05.402Z,0.99
2023-01-29T13:52:07.339Z,0.73
2023-01-29T13:55:14.525Z,0.45
2023-01-29T13:58:05.091Z,0.22
2023-01-29T14:00:50.553Z,0.09
2023-01-29T14:03:18.768Z,0.02
2023-01-29T14:05:57.819Z,0.35
2023-01-29T14:08:44.012Z,2.26
2023-01-29T14:11:21.777Z,4.10
2023-01-29T14:13:52.873Z,4.80
2023-01-29T14:16:21.170Z,3.79
2023-01-29T14:19:18.109Z,2.81
2023-01-29T14:21:54.589Z,2.08
2023-01-29T14:24:52.986Z,1.60
2023-01-29T14:27:46.446Z,1.20
2023-01-29T14:30:18.987Z,0.90
2023-01-29T14:33:35.503Z,0.69
2023-01-29T14:36:40.882Z,0.46
2023-01-29T14:39:55.815Z,0.22
2023-01-29T14:43:31.954Z,0.11
2023-01-29T14:46:35.678Z,2.26
2023-01-29T14:49:45.780Z,3.74
2023-01-29T14:53:14.456Z,3.43
2023-01-29T14:57:03.814Z,2.10
2023-01-29T14:59:40.096Z,1.27
2023-01-29T15:02:33.413Z,0.89
2023-01-29T15:05:02.856Z,0.57
2023-01-29T15:07:39.501Z,0.35
2023-01-29T15:11:22.651Z,0.14
2023-01-29T15:14:21.678Z,0.03
2023-01-29T15:17:38.301Z,1.72
2023-01-29T15:21:30.138Z,2.40
2023-01-29T15:25:06.248Z,1.35
2023-01-29T15:28:36.273Z,0.68
2023-01-29T15:31:30.689Z,0.26
2023-01-29T15:34:22.200Z,-0.01
2023-01-29T15:37:34.323Z,-0.22
2023-01-29T15:40:41.798Z,-0.35
2023-01-29T15:43:46.564Z,1.23
2023-01-29T15:46:39.099Z,3.25
2023-01-29T15:50:06.560Z,3.88
2023-01-29T15:52:57.312Z,2.66
2023-01-29T15:55:35.937Z,1.79
2023-01-29T15:58:03.846Z,1.28
2023-01-29T16:00:34.227Z,0.93
2023-01-29T16:03:15.138Z,0.66
2023-01-29T16:06:03.108Z,0.41
2023-01-29T16:08:32.433Z,0.18
2023-01-29T16:11:24.178Z,0.07
2023-01-29T16:14:00.257Z,1.55
2023-01-29T16:17:11.946Z,3.13
2023-01-29T16:20:06.689Z,3.92
2023-01-29T16:22:58.413Z,2.90
2023-01-29T16:26:06.759Z,1.93
2023-01-29T16:29:36.249Z,1.20
2023-01-29T16:32:29.982Z,0.64
2023-01-29T16:35:21.380Z,0.26
2023-01-29T16:37:52.050Z,-0.03
2023-01-29T16:40:36.662Z,0.14
2023-01-29T16:43:53.049Z,1.94
2023-01-29T16:46:56.592Z,3.44
2023-01-29T16:49:34.908Z,2.68
2023-01-29T16:52:44.524Z,1.79
2023-01-29T16:55:33.086Z,1.06
2023-01-29T16:58:47.540Z,0.64
2023-01-29T17:01:55.525Z,0.31
2023-01-29T17:05:26.761Z,0.06
2023-01-29T17:09:18.393Z,0.24
2023-01-29T17:12:47.738Z,2.32
2023-01-29T17:16:48.021Z,1.79
2023-01-29T17:20:40.058Z,0.91
2023-01-29T17:24:28.396Z,0.36
2023-01-29T17:28:26.222Z,1.54
2023-01-29T17:32:19.509Z,3.86
2023-01-29T17:36:10.557Z,3.12
2023-01-29T17:39:58.978Z,1.82
2023-01-29T17:43:42.449Z,1.04
2023-01-29T17:46:21.323Z,0.57
2023-01-29T17:48:53.396Z,0.28
2023-01-29T17:51:23.449Z,0.52
2023-01-29T17:53:53.040Z,2.21
2023-01-29T17:56:33.689Z,3.38
2023-01-29T17:59:03.063Z,3.83
2023-01-29T18:01:31.437Z,2.86
2023-01-29T18:04:00.438Z,2.02
2023-01-29T18:06:32.703Z,1.40
2023-01-29T18:09:00.625Z,0.95
2023-01-29T18:11:30.183Z,0.60
2023-01-29T18:13:58.493Z,0.31
2023-01-29T18:16:29.687Z,0.46
2023-01-29T18:18:58.148Z,2.07
2023-01-29T18:21:26.892Z,3.56
2023-01-29T18:23:55.352Z,4.09
2023-01-29T18:26:23.815Z,3.01
2023-01-29T18:28:53.605Z,2.05
2023-01-29T18:31:22.360Z,1.44
2023-01-29T18:33:50.710Z,0.98
2023-01-29T18:36:23.666Z,0.63
2023-01-29T18:38:55.519Z,0.33
2023-01-29T18:41:24.627Z,0.07
2023-01-29T18:43:54.203Z,0.28
2023-01-29T18:46:24.947Z,2.08
2023-01-29T18:48:53.914Z,3.37
2023-01-29T18:51:22.041Z,4.24
2023-01-29T18:53:53.735Z,4.10
2023-01-29T18:56:22.281Z,2.99
2023-01-29T19:02:50.331Z,1.05
2023-01-29T19:05:24.021Z,0.65
2023-01-29T19:07:53.674Z,0.33
2023-01-29T19:10:22.604Z,1.09
2023-01-29T19:12:51.392Z,2.70
2023-01-29T19:15:22.433Z,3.78
2023-01-29T19:17:53.894Z,3.99
2023-01-29T19:20:24.701Z,2.92
2023-01-29T19:22:53.377Z,2.00
2023-01-29T19:25:24.823Z,1.31
2023-01-29T19:27:56.095Z,0.80
2023-01-29T19:30:24.592Z,0.43
2023-01-29T19:32:53.685Z,0.13
2023-01-29T19:35:23.230Z,0.19
2023-01-29T19:37:51.029Z,1.89
2023-01-29T19:40:20.283Z,3.36
2023-01-29T19:42:50.139Z,3.16
2023-01-29T19:45:18.695Z,2.21
2023-01-29T19:48:06.058Z,1.35
2023-01-29T19:50:34.883Z,0.83
2023-01-29T19:53:03.149Z,0.42
2023-01-29T19:55:35.418Z,0.52
2023-01-29T19:58:05.722Z,2.27
2023-01-29T20:00:49.520Z,3.97
2023-01-29T20:03:17.549Z,5.01
2023-01-29T20:05:49.049Z,4.37
2023-01-29T20:08:19.591Z,3.03
2023-01-29T20:10:48.897Z,2.15
2023-01-29T20:13:17.786Z,1.52
2023-01-29T20:15:52.140Z,1.01
2023-01-29T20:18:25.201Z,0.57
2023-01-29T20:20:56.763Z,0.23
2023-01-29T20:23:37.301Z,0.69
2023-01-29T20:26:08.467Z,2.57
2023-01-29T20:28:38.695Z,4.18
2023-01-29T20:31:09.555Z,5.40
2023-01-29T20:33:39.627Z,5.60
2023-01-29T20:36:10.929Z,4.17
2023-01-29T20:38:40.967Z,2.74
2023-01-29T20:41:19.815Z,1.82
2023-01-29T20:43:50.853Z,1.18
2023-01-29T20:46:19.845Z,0.71
2023-01-29T20:48:49.970Z,0.70
2023-01-29T20:51:18.775Z,2.40
2023-01-29T20:53:49.253Z,4.19
2023-01-29T20:56:24.570Z,5.11
2023-01-29T20:59:04.407Z,4.44
2023-01-29T21:01:32.415Z,2.91
2023-01-29T21:04:00.656Z,1.97
2023-01-29T21:06:30.816Z,1.28
2023-01-29T21:08:59.106Z,0.81
2023-01-29T21:11:27.315Z,0.87
2023-01-29T21:14:00.430Z,2.60
2023-01-29T21:16:28.608Z,4.38
2023-01-29T21:18:58.657Z,5.40
2023-01-29T21:21:27.232Z,5.09
2023-01-29T21:23:56.802Z,3.79
2023-01-29T21:26:26.020Z,2.68
2023-01-29T21:28:53.929Z,1.92
2023-01-29T21:31:22.463Z,1.39
2023-01-29T21:33:51.387Z,0.98
2023-01-29T21:36:19.133Z,0.93
2023-01-29T21:38:46.706Z,2.37
2023-01-29T21:41:14.700Z,4.05
2023-01-29T21:43:46.189Z,4.54
2023-01-29T21:46:14.239Z,3.57
2023-01-29T21:48:41.968Z,2.47
2023-01-29T21:51:09.742Z,1.67
2023-01-29T21:53:37.821Z,1.09
2023-01-29T21:56:06.324Z,0.70
2023-01-29T21:58:33.913Z,0.68
2023-01-29T22:01:36.725Z,2.24
2023-01-29T22:03:48.959Z,4.08
2023-01-29T22:06:16.288Z,4.98
2023-01-29T22:08:43.737Z,4.26
2023-01-29T22:11:11.449Z,3.11
2023-01-29T22:13:39.223Z,2.23
2023-01-29T22:16:06.877Z,1.56
2023-01-29T22:18:35.228Z,1.08
2023-01-29T22:21:05.578Z,0.71
2023-01-29T22:23:32.961Z,0.67
2023-01-29T22:26:05.223Z,1.89
2023-01-29T22:28:32.763Z,3.26
2023-01-29T22:31:04.845Z,4.11
2023-01-29T22:33:33.733Z,4.58
2023-01-29T22:36:01.244Z,3.62
2023-01-29T22:38:29.453Z,2.53
2023-01-29T22:40:58.177Z,1.80
2023-01-29T22:43:29.705Z,1.24
2023-01-29T22:45:57.603Z,1.11
2023-01-29T22:48:25.077Z,2.38
2023-01-29T22:51:12.118Z,3.54
2023-01-29T22:53:41.304Z,4.39
2023-01-29T22:56:09.769Z,3.72
2023-01-29T22:58:37.528Z,2.62
2023-01-29T23:01:05.621Z,1.82
2023-01-29T23:03:33.225Z,1.24
2023-01-29T23:06:01.318Z,0.82
2023-01-29T23:08:28.545Z,0.93
2023-01-29T23:10:58.840Z,2.36
2023-01-29T23:13:26.903Z,3.56
2023-01-29T23:16:00.763Z,3.92
2023-01-29T23:18:28.106Z,2.98
2023-01-29T23:20:59.028Z,2.11
2023-01-29T23:23:29.360Z,1.44
2023-01-29T23:26:19.918Z,0.98
2023-01-29T23:28:47.855Z,0.59
2023-01-29T23:31:15.908Z,0.79
2023-01-29T23:33:44.541Z,2.05
2023-01-29T23:36:12.185Z,3.26
2023-01-29T23:38:39.665Z,4.37
2023-01-29T23:41:07.356Z,4.49
2023-01-29T23:43:35.542Z,3.33
2023-01-29T23:46:02.996Z,2.24
2023-01-29T23:48:30.387Z,1.41
2023-01-29T23:50:58.488Z,0.85
2023-01-29T23:53:26.697Z,0.45
2023-01-29T23:55:59.964Z,1.30
2023-01-29T23:58:28.922Z,3.03
